Time;durP1;ratioP1;P1;durP2;ratioP2;P2;SDS_P1;SDS_P2;PMS_P1;PMS_P2;Temp;Humidity;BMP_temperature;BMP_pressure;BME280_temperature;BME280_humidity;BME280_pressure;Samples;Min_cycle;Max_cycle;Signal;HPM_P1;HPM_P2
2021/09/30 00:01:41;;;;;;;9.30;5.80;;;;;;;;;;7390704;19;20331;-45
2021/09/30 00:04:09;;;;;;;9.13;5.75;;;;;;;;;;7392052;19;20010;-44
2021/09/30 00:06:36;;;;;;;13.40;5.72;;;;;;;;;;7392062;19;20038;-45
2021/09/30 00:09:03;;;;;;;9.18;4.90;;;;;;;;;;7392851;19;20019;-42
2021/09/30 00:11:35;;;;;;;7.28;4.90;;;;;;;;;;7391869;19;20015;-43
2021/09/30 00:35:56;;;;;;;12.57;5.32;;;;;;;;;;7392255;19;20010;-47
2021/09/30 00:47:33;;;;;;;11.45;5.93;;;;;;;;;;7390819;19;20014;-41
2021/09/30 00:49:26;;;;;;;7.50;4.63;;;;;;;;;;7389163;19;20018;-45
2021/09/30 01:46:23;;;;;;;8.60;4.85;;;;;;;;;;7389005;19;20034;-45
2021/09/30 02:28:11;;;;;;;8.27;4.85;;;;;;;;;;7394937;19;20010;-49
2021/09/30 02:58:36;;;;;;;7.72;4.65;;;;;;;;;;7391272;19;20013;-44
2021/09/30 03:01:19;;;;;;;10.90;6.40;;;;;;;;;;7392606;19;20011;-46
2021/09/30 03:03:54;;;;;;;11.27;6.03;;;;;;;;;;7393521;19;20007;-43
2021/09/30 03:06:24;;;;;;;11.07;5.32;;;;;;;;;;7394085;19;20019;-45
2021/09/30 03:08:56;;;;;;;15.50;6.70;;;;;;;;;;7395250;19;20011;-44
2021/09/30 03:11:26;;;;;;;13.05;6.97;;;;;;;;;;7393508;19;20026;-41
2021/09/30 03:13:56;;;;;;;9.93;6.07;;;;;;;;;;7396614;19;20026;-51
2021/09/30 03:16:44;;;;;;;11.00;6.32;;;;;;;;;;7393759;19;20021;-48
2021/09/30 03:22:14;;;;;;;13.75;6.68;;;;;;;;;;7393018;19;20014;-44
2021/09/30 03:24:45;;;;;;;11.40;6.47;;;;;;;;;;7392596;19;20478;-43
2021/09/30 03:27:14;;;;;;;15.52;6.78;;;;;;;;;;7396991;19;20035;-50
2021/09/30 03:29:43;;;;;;;14.23;8.55;;;;;;;;;;7394075;19;20014;-53
2021/09/30 03:32:12;;;;;;;79.35;36.88;;;;;;;;;;7392646;19;20016;-41
2021/09/30 03:34:44;;;;;;;21.30;13.05;;;;;;;;;;7394707;19;20021;-46
2021/09/30 03:37:12;;;;;;;14.80;8.18;;;;;;;;;;7392495;19;20019;-51
2021/09/30 03:39:41;;;;;;;9.35;6.03;;;;;;;;;;7391770;19;20025;-55
2021/09/30 03:42:09;;;;;;;9.07;5.32;;;;;;;;;;7390542;19;20025;-49
2021/09/30 03:44:40;;;;;;;11.23;7.00;;;;;;;;;;7393848;19;20025;-40
2021/09/30 03:47:13;;;;;;;11.52;6.15;;;;;;;;;;7392042;19;20135;-47
2021/09/30 03:49:53;;;;;;;10.43;5.80;;;;;;;;;;7391825;19;20014;-41
2021/09/30 03:52:41;;;;;;;8.85;5.55;;;;;;;;;;7392427;19;20010;-43
2021/09/30 04:00:27;;;;;;;9.88;6.57;;;;;;;;;;7390439;19;20018;-42
2021/09/30 04:02:54;;;;;;;9.07;5.55;;;;;;;;;;7390026;19;20014;-47
2021/09/30 04:05:22;;;;;;;18.25;9.18;;;;;;;;;;7391890;19;20002;-47
2021/09/30 04:07:49;;;;;;;21.67;11.48;;;;;;;;;;7392985;19;20074;-46
2021/09/30 04:10:17;;;;;;;17.33;9.35;;;;;;;;;;7389801;19;20014;-44
2021/09/30 04:12:46;;;;;;;15.52;7.68;;;;;;;;;;7393125;19;20047;-44
2021/09/30 04:15:14;;;;;;;8.27;5.15;;;;;;;;;;7391203;19;20022;-45
2021/09/30 04:17:41;;;;;;;8.48;5.72;;;;;;;;;;7392515;19;20078;-51
2021/09/30 04:20:23;;;;;;;9.52;5.90;;;;;;;;;;7389874;19;20034;-50
2021/09/30 04:23:03;;;;;;;7.95;5.30;;;;;;;;;;7389610;19;20018;-46
2021/09/30 04:25:34;;;;;;;7.78;5.22;;;;;;;;;;7390073;19;20010;-50
2021/09/30 04:28:01;;;;;;;8.65;5.13;;;;;;;;;;7390644;19;20066;-54
2021/09/30 04:30:30;;;;;;;9.93;5.18;;;;;;;;;;7392036;19;20010;-50
2021/09/30 04:33:18;;;;;;;8.95;5.63;;;;;;;;;;7391566;19;20022;-43
2021/09/30 04:35:49;;;;;;;10.75;5.20;;;;;;;;;;7392916;19;20010;-48
2021/09/30 04:38:17;;;;;;;10.98;5.90;;;;;;;;;;7392386;19;20018;-41
2021/09/30 04:40:44;;;;;;;9.13;5.80;;;;;;;;;;7392196;19;20113;-39
2021/09/30 04:43:13;;;;;;;9.75;4.88;;;;;;;;;;7387731;19;20022;-40
2021/09/30 04:45:41;;;;;;;9.80;5.35;;;;;;;;;;7389617;19;20014;-44
2021/09/30 04:48:14;;;;;;;7.22;4.88;;;;;;;;;;7389536;19;20018;-42
2021/09/30 04:50:47;;;;;;;7.47;4.50;;;;;;;;;;7390371;19;20475;-52
2021/09/30 04:53:14;;;;;;;11.90;5.53;;;;;;;;;;7391352;19;20892;-41
2021/09/30 04:55:42;;;;;;;10.35;6.47;;;;;;;;;;7389675;19;20077;-53
2021/09/30 04:58:09;;;;;;;7.65;5.63;;;;;;;;;;7390015;19;20015;-46
2021/09/30 05:00:38;;;;;;;9.27;4.70;;;;;;;;;;7389206;19;20017;-54
2021/09/30 05:03:15;;;;;;;9.82;5.57;;;;;;;;;;7388297;19;20060;-47
2021/09/30 05:05:43;;;;;;;10.80;6.40;;;;;;;;;;7390926;19;20018;-45
2021/09/30 05:08:10;;;;;;;8.45;6.00;;;;;;;;;;7389861;19;20010;-45
2021/09/30 05:10:44;;;;;;;10.45;4.90;;;;;;;;;;7389223;19;20011;-41
2021/09/30 05:13:17;;;;;;;26.52;12.05;;;;;;;;;;7390019;19;20070;-46
2021/09/30 05:15:46;;;;;;;15.13;7.97;;;;;;;;;;7388908;19;20085;-43
2021/09/30 05:18:32;;;;;;;10.40;5.75;;;;;;;;;;7389012;19;20033;-42
2021/09/30 05:21:03;;;;;;;11.73;6.10;;;;;;;;;;7387016;19;20021;-49
2021/09/30 05:23:31;;;;;;;11.38;5.25;;;;;;;;;;7386212;19;20768;-43
2021/09/30 05:25:59;;;;;;;11.60;4.95;;;;;;;;;;7388043;19;20120;-44
2021/09/30 05:28:26;;;;;;;10.93;5.80;;;;;;;;;;7389316;19;20078;-50
2021/09/30 05:30:55;;;;;;;10.95;5.38;;;;;;;;;;7388798;19;20018;-47
2021/09/30 05:33:40;;;;;;;9.73;4.85;;;;;;;;;;7389713;19;20022;-45
2021/09/30 05:36:08;;;;;;;8.23;5.82;;;;;;;;;;7386987;19;20015;-41
2021/09/30 05:38:37;;;;;;;10.85;5.90;;;;;;;;;;7387667;19;20021;-46
2021/09/30 05:41:06;;;;;;;10.75;6.80;;;;;;;;;;7389516;19;20014;-49
2021/09/30 05:43:37;;;;;;;8.80;5.85;;;;;;;;;;7386405;19;20029;-51
2021/09/30 05:46:07;;;;;;;12.23;7.15;;;;;;;;;;7388324;19;20010;-49
2021/09/30 05:48:34;;;;;;;8.30;5.30;;;;;;;;;;7387510;19;20089;-44
2021/09/30 05:51:03;;;;;;;15.07;7.28;;;;;;;;;;7388143;19;20033;-51
2021/09/30 05:53:50;;;;;;;24.75;12.85;;;;;;;;;;7389960;19;20015;-49
2021/09/30 05:56:28;;;;;;;19.48;10.88;;;;;;;;;;7388518;19;20010;-47
2021/09/30 05:58:56;;;;;;;13.57;9.35;;;;;;;;;;7388512;19;20022;-46
2021/09/30 06:14:40;;;;;;;12.45;6.90;;;;;;;;;;7391984;19;20281;-45
2021/09/30 06:17:08;;;;;;;8.45;5.60;;;;;;;;;;7389584;19;20033;-45
2021/09/30 06:19:39;;;;;;;10.00;7.25;;;;;;;;;;7385017;19;20014;-54
2021/09/30 06:22:07;;;;;;;51.72;28.23;;;;;;;;;;7385389;19;20362;-50
2021/09/30 06:24:37;;;;;;;14.88;9.70;;;;;;;;;;7386788;19;20073;-52
2021/09/30 06:27:25;;;;;;;15.18;7.10;;;;;;;;;;7387821;19;20014;-43
2021/09/30 06:29:55;;;;;;;11.75;6.32;;;;;;;;;;7387137;19;20015;-42
2021/09/30 06:32:23;;;;;;;10.15;5.68;;;;;;;;;;7389944;19;20014;-51
2021/09/30 06:35:23;;;;;;;7.78;4.72;;;;;;;;;;7394272;19;20018;-52
2021/09/30 06:37:52;;;;;;;9.57;6.15;;;;;;;;;;7394723;19;20015;-46
2021/09/30 06:40:22;;;;;;;8.07;5.47;;;;;;;;;;7394573;19;20018;-53
2021/09/30 06:42:50;;;;;;;9.57;5.68;;;;;;;;;;7392629;19;20089;-40
2021/09/30 06:45:55;;;;;;;9.07;5.43;;;;;;;;;;7395830;19;20007;-51
2021/09/30 06:48:46;;;;;;;10.75;5.47;;;;;;;;;;7394914;19;20361;-41
2021/09/30 06:51:25;;;;;;;9.40;5.13;;;;;;;;;;7396187;19;20014;-50
2021/09/30 06:53:53;;;;;;;10.45;4.47;;;;;;;;;;7394480;19;20016;-45
2021/09/30 06:56:40;;;;;;;8.07;4.85;;;;;;;;;;7395511;19;20479;-51
2021/09/30 06:59:33;;;;;;;7.78;4.03;;;;;;;;;;7395529;19;20021;-49
2021/09/30 07:02:22;;;;;;;16.20;9.32;;;;;;;;;;7394615;19;20018;-42
2021/09/30 07:05:10;;;;;;;9.60;6.38;;;;;;;;;;7394453;19;20026;-45
2021/09/30 07:07:55;;;;;;;21.63;11.68;;;;;;;;;;7393519;19;20011;-42
2021/09/30 07:10:22;;;;;;;8.20;5.15;;;;;;;;;;7395384;19;20092;-44
2021/09/30 07:12:49;;;;;;;7.05;4.43;;;;;;;;;;7395807;19;20003;-41
2021/09/30 07:15:17;;;;;;;9.27;4.28;;;;;;;;;;7393869;19;20047;-49
2021/09/30 07:17:44;;;;;;;7.85;4.45;;;;;;;;;;7394902;19;20014;-52
2021/09/30 07:20:12;;;;;;;8.65;4.60;;;;;;;;;;7399431;19;20430;-46
2021/09/30 07:22:40;;;;;;;9.30;4.38;;;;;;;;;;7393165;19;20011;-52
2021/09/30 07:25:08;;;;;;;10.88;4.35;;;;;;;;;;7394236;19;20078;-47
2021/09/30 07:27:36;;;;;;;7.00;4.07;;;;;;;;;;7394161;19;20011;-47
2021/09/30 07:30:05;;;;;;;7.53;4.20;;;;;;;;;;7390698;19;20035;-46
2021/09/30 07:32:32;;;;;;;8.13;4.00;;;;;;;;;;7390165;19;20023;-45
2021/09/30 07:35:00;;;;;;;10.98;4.85;;;;;;;;;;7389154;19;20039;-43
2021/09/30 07:37:27;;;;;;;9.52;3.95;;;;;;;;;;7389268;19;20475;-45
2021/09/30 07:39:55;;;;;;;7.53;4.55;;;;;;;;;;7390021;19;20115;-40
2021/09/30 07:42:24;;;;;;;6.22;3.70;;;;;;;;;;7387042;19;20011;-41
2021/09/30 07:44:51;;;;;;;7.28;3.78;;;;;;;;;;7388682;19;20069;-55
2021/09/30 07:47:18;;;;;;;9.20;3.70;;;;;;;;;;7391792;19;20010;-52
2021/09/30 07:49:46;;;;;;;6.57;3.78;;;;;;;;;;7392280;19;20445;-51
2021/09/30 07:52:13;;;;;;;6.47;3.78;;;;;;;;;;7394027;19;20014;-54
2021/09/30 07:54:41;;;;;;;5.28;3.42;;;;;;;;;;7393546;19;20018;-41
2021/09/30 07:57:10;;;;;;;7.18;3.05;;;;;;;;;;7393428;19;20474;-48
2021/09/30 07:59:38;;;;;;;11.00;3.70;;;;;;;;;;7393754;19;20399;-46
2021/09/30 08:02:06;;;;;;;7.60;3.45;;;;;;;;;;7392523;19;20486;-45
2021/09/30 08:04:33;;;;;;;4.28;3.08;;;;;;;;;;7389459;19;20031;-46
2021/09/30 08:07:05;;;;;;;6.05;3.50;;;;;;;;;;7392523;19;20011;-42
2021/09/30 08:09:33;;;;;;;6.70;3.22;;;;;;;;;;7393019;19;20016;-42
2021/09/30 08:12:02;;;;;;;5.57;3.25;;;;;;;;;;7392562;19;20020;-45
2021/09/30 08:14:30;;;;;;;6.32;3.13;;;;;;;;;;7396424;19;20010;-49
2021/09/30 08:16:57;;;;;;;5.60;3.42;;;;;;;;;;7393460;19;20006;-42
2021/09/30 08:19:25;;;;;;;6.32;2.90;;;;;;;;;;7393355;19;20337;-47
2021/09/30 08:21:52;;;;;;;8.70;3.70;;;;;;;;;;7392395;19;20010;-44
2021/09/30 08:24:20;;;;;;;5.93;3.22;;;;;;;;;;7392474;19;20024;-50
2021/09/30 08:26:48;;;;;;;8.00;3.35;;;;;;;;;;7392227;19;20039;-44
2021/09/30 08:29:18;;;;;;;7.00;4.00;;;;;;;;;;7392205;19;20014;-48
2021/09/30 08:31:46;;;;;;;5.22;3.30;;;;;;;;;;7392407;19;20021;-49
2021/09/30 08:34:14;;;;;;;6.90;3.50;;;;;;;;;;7392475;19;20013;-49
2021/09/30 08:36:41;;;;;;;6.35;3.40;;;;;;;;;;7392561;19;20011;-45
2021/09/30 08:39:10;;;;;;;5.65;3.60;;;;;;;;;;7389155;19;20025;-40
2021/09/30 08:41:38;;;;;;;5.63;3.17;;;;;;;;;;7391713;19;20021;-41
2021/09/30 08:44:06;;;;;;;5.78;3.45;;;;;;;;;;7390415;19;20019;-50
2021/09/30 08:46:34;;;;;;;6.13;2.70;;;;;;;;;;7391653;19;20022;-46
2021/09/30 08:49:03;;;;;;;4.40;3.05;;;;;;;;;;7391473;19;20355;-47
2021/09/30 08:51:31;;;;;;;5.88;2.83;;;;;;;;;;7392991;19;20074;-48
2021/09/30 08:54:00;;;;;;;4.97;2.88;;;;;;;;;;7391379;19;20026;-48
2021/09/30 08:56:27;;;;;;;8.80;3.45;;;;;;;;;;7389592;19;20018;-51
2021/09/30 08:58:55;;;;;;;5.03;2.55;;;;;;;;;;7391822;19;20011;-48
2021/09/30 09:01:22;;;;;;;10.52;3.10;;;;;;;;;;7391644;19;20011;-52
2021/09/30 09:03:49;;;;;;;6.00;2.53;;;;;;;;;;7389754;19;20059;-53
2021/09/30 09:06:32;;;;;;;5.22;2.60;;;;;;;;;;7390359;19;20470;-41
2021/09/30 09:09:23;;;;;;;4.95;2.80;;;;;;;;;;7391035;19;20011;-48
2021/09/30 09:11:54;;;;;;;6.53;2.97;;;;;;;;;;7389038;19;20094;-53
2021/09/30 09:14:29;;;;;;;5.28;2.58;;;;;;;;;;7394781;19;20011;-49
2021/09/30 09:17:00;;;;;;;4.40;2.67;;;;;;;;;;7391120;19;20009;-47
2021/09/30 09:19:32;;;;;;;5.82;2.92;;;;;;;;;;7391621;19;20030;-45
2021/09/30 09:22:04;;;;;;;4.00;2.50;;;;;;;;;;7390020;19;20006;-42
2021/09/30 09:24:32;;;;;;;3.60;2.17;;;;;;;;;;7388663;19;20014;-45
2021/09/30 09:27:00;;;;;;;6.18;2.50;;;;;;;;;;7390108;19;20090;-46
2021/09/30 09:29:31;;;;;;;6.68;2.50;;;;;;;;;;7390976;19;20010;-45
2021/09/30 09:32:04;;;;;;;5.03;2.50;;;;;;;;;;7388545;19;20018;-42
2021/09/30 09:34:38;;;;;;;5.03;2.38;;;;;;;;;;7390516;19;20015;-42
2021/09/30 09:37:30;;;;;;;6.10;2.13;;;;;;;;;;7390363;19;20078;-39
2021/09/30 09:40:11;;;;;;;2.50;1.50;;;;;;;;;;7390640;19;20490;-56
2021/09/30 09:42:39;;;;;;;4.85;2.90;;;;;;;;;;7389930;19;20022;-48
2021/09/30 09:45:11;;;;;;;6.57;2.30;;;;;;;;;;7389873;19;20025;-42
2021/09/30 09:47:39;;;;;;;4.95;2.17;;;;;;;;;;7389821;19;20010;-49
2021/09/30 09:50:11;;;;;;;3.58;1.85;;;;;;;;;;7390165;19;20006;-49
2021/09/30 09:52:46;;;;;;;3.83;2.25;;;;;;;;;;7389124;19;20007;-43
2021/09/30 09:55:33;;;;;;;3.20;1.95;;;;;;;;;;7390642;19;20095;-46
2021/09/30 09:58:05;;;;;;;3.42;1.90;;;;;;;;;;7390341;19;20050;-50
2021/09/30 10:00:35;;;;;;;4.15;1.70;;;;;;;;;;7389926;19;20025;-50
2021/09/30 10:03:13;;;;;;;4.90;1.80;;;;;;;;;;7388478;19;20023;-47
2021/09/30 10:05:41;;;;;;;5.38;2.30;;;;;;;;;;7389389;19;20006;-41
2021/09/30 10:08:09;;;;;;;4.10;1.60;;;;;;;;;;7393556;19;20011;-52
2021/09/30 10:10:38;;;;;;;3.97;1.40;;;;;;;;;;7397265;19;20027;-41
2021/09/30 10:13:06;;;;;;;5.68;1.60;;;;;;;;;;7396264;19;20039;-49
2021/09/30 10:15:35;;;;;;;3.05;1.45;;;;;;;;;;7394617;19;20010;-47
2021/09/30 10:18:07;;;;;;;3.22;1.80;;;;;;;;;;7396923;19;20018;-52
2021/09/30 10:20:36;;;;;;;4.93;1.80;;;;;;;;;;7396934;19;20053;-54
2021/09/30 10:23:06;;;;;;;4.53;2.13;;;;;;;;;;7394626;19;20019;-46
2021/09/30 10:25:36;;;;;;;8.75;2.45;;;;;;;;;;7395992;19;20014;-41
2021/09/30 10:28:06;;;;;;;4.07;2.50;;;;;;;;;;7396690;19;20018;-54
2021/09/30 10:30:36;;;;;;;4.65;2.22;;;;;;;;;;7398864;19;20014;-51
2021/09/30 10:33:09;;;;;;;3.75;1.58;;;;;;;;;;7396361;19;20023;-46
2021/09/30 10:35:45;;;;;;;9.48;2.00;;;;;;;;;;7396780;19;20021;-48
2021/09/30 10:38:19;;;;;;;4.07;1.90;;;;;;;;;;7395267;19;20011;-46
2021/09/30 10:41:06;;;;;;;6.45;1.75;;;;;;;;;;7394369;19;20471;-41
2021/09/30 10:43:46;;;;;;;5.55;2.05;;;;;;;;;;7394755;19;20048;-45
2021/09/30 10:46:45;;;;;;;5.47;1.90;;;;;;;;;;7394939;19;20029;-44
2021/09/30 10:49:28;;;;;;;230.18;109.45;;;;;;;;;;7395676;19;20031;-43
2021/09/30 10:52:25;;;;;;;16.80;9.60;;;;;;;;;;7395204;19;20014;-43
2021/09/30 10:54:55;;;;;;;5.65;2.83;;;;;;;;;;7394948;19;20011;-48
2021/09/30 10:57:42;;;;;;;3.05;1.50;;;;;;;;;;7395853;19;20010;-45
2021/09/30 11:00:19;;;;;;;3.78;1.58;;;;;;;;;;7395668;19;20124;-45
2021/09/30 11:03:20;;;;;;;5.82;1.92;;;;;;;;;;7394602;19;20074;-42
2021/09/30 11:06:07;;;;;;;5.90;1.60;;;;;;;;;;7394128;19;20022;-48
2021/09/30 11:08:34;;;;;;;3.05;1.70;;;;;;;;;;7394871;19;20010;-43
2021/09/30 11:11:12;;;;;;;2.78;1.60;;;;;;;;;;7394757;19;20518;-44
2021/09/30 11:13:42;;;;;;;3.25;1.88;;;;;;;;;;7396879;19;20014;-45
2021/09/30 11:16:20;;;;;;;4.45;1.67;;;;;;;;;;7394959;19;20027;-45
2021/09/30 11:18:49;;;;;;;3.55;1.85;;;;;;;;;;7394199;19;20017;-47
2021/09/30 11:21:31;;;;;;;5.53;2.13;;;;;;;;;;7392106;19;20014;-43
2021/09/30 11:24:04;;;;;;;2.75;1.80;;;;;;;;;;7392604;19;20018;-40
2021/09/30 11:26:53;;;;;;;5.55;2.67;;;;;;;;;;7393122;19;20006;-45
2021/09/30 11:29:23;;;;;;;3.05;1.98;;;;;;;;;;7394777;19;20010;-44
2021/09/30 11:31:53;;;;;;;6.60;2.30;;;;;;;;;;7393984;19;20486;-49
2021/09/30 11:34:22;;;;;;;5.22;2.30;;;;;;;;;;7393363;19;20396;-41
2021/09/30 11:36:50;;;;;;;4.90;2.50;;;;;;;;;;7394110;19;20021;-45
2021/09/30 11:39:18;;;;;;;8.38;2.50;;;;;;;;;;7394225;19;20584;-48
2021/09/30 11:41:48;;;;;;;5.78;2.45;;;;;;;;;;7396169;19;20011;-47
2021/09/30 11:44:18;;;;;;;3.30;2.15;;;;;;;;;;7392740;19;20021;-40
2021/09/30 11:46:51;;;;;;;4.80;2.45;;;;;;;;;;7393078;19;20007;-45
2021/09/30 11:49:19;;;;;;;2.88;1.98;;;;;;;;;;7393014;19;20050;-45
2021/09/30 11:51:57;;;;;;;158.10;70.05;;;;;;;;;;7393146;19;20010;-44
2021/09/30 11:54:34;;;;;;;24.33;11.30;;;;;;;;;;7393447;19;20010;-48
2021/09/30 11:57:04;;;;;;;6.80;3.08;;;;;;;;;;7394010;19;20014;-52
2021/09/30 11:59:32;;;;;;;6.35;2.50;;;;;;;;;;7393629;19;20367;-43
2021/09/30 12:02:05;;;;;;;4.55;2.58;;;;;;;;;;7393492;19;20023;-42
2021/09/30 12:04:59;;;;;;;3.95;2.42;;;;;;;;;;7392048;19;20010;-48
2021/09/30 12:07:30;;;;;;;4.60;2.00;;;;;;;;;;7391644;19;20474;-49
2021/09/30 12:09:59;;;;;;;5.38;2.28;;;;;;;;;;7393356;19;20006;-51
2021/09/30 12:12:31;;;;;;;5.93;2.60;;;;;;;;;;7396841;19;20487;-49
2021/09/30 12:15:00;;;;;;;4.23;2.37;;;;;;;;;;7393346;19;20018;-43
2021/09/30 12:17:35;;;;;;;3.60;2.35;;;;;;;;;;7393074;19;20483;-49
2021/09/30 12:20:06;;;;;;;3.65;2.20;;;;;;;;;;7393054;19;20006;-47
2021/09/30 12:22:37;;;;;;;4.25;2.47;;;;;;;;;;7391221;19;20010;-46
2021/09/30 12:25:08;;;;;;;3.80;2.50;;;;;;;;;;7390302;19;20006;-49
2021/09/30 12:27:38;;;;;;;3.90;2.42;;;;;;;;;;7392024;19;20469;-44
2021/09/30 12:30:21;;;;;;;8.13;2.88;;;;;;;;;;7391462;19;20043;-47
2021/09/30 12:32:52;;;;;;;4.82;2.28;;;;;;;;;;7392085;19;20007;-49
2021/09/30 12:35:26;;;;;;;182.80;74.47;;;;;;;;;;7392309;19;20517;-52
2021/09/30 12:37:56;;;;;;;15.02;8.52;;;;;;;;;;7392998;19;20017;-55
2021/09/30 12:40:27;;;;;;;7.20;3.40;;;;;;;;;;7392954;19;20025;-55
2021/09/30 12:42:59;;;;;;;5.43;3.20;;;;;;;;;;7392479;19;20078;-44
2021/09/30 12:45:29;;;;;;;5.97;3.05;;;;;;;;;;7391805;19;20078;-40
2021/09/30 12:48:12;;;;;;;6.60;3.80;;;;;;;;;;7389421;19;20014;-48
2021/09/30 12:50:50;;;;;;;5.47;3.47;;;;;;;;;;7391489;19;20016;-43
2021/09/30 12:53:20;;;;;;;9.48;4.03;;;;;;;;;;7391368;19;20775;-46
2021/09/30 12:55:50;;;;;;;7.15;4.60;;;;;;;;;;7391629;19;20006;-49
2021/09/30 12:58:39;;;;;;;8.38;4.22;;;;;;;;;;7388897;19;20022;-44
2021/09/30 13:01:30;;;;;;;6.13;4.18;;;;;;;;;;7391786;19;20014;-46
2021/09/30 13:04:10;;;;;;;9.25;4.70;;;;;;;;;;7391033;19;20010;-44
2021/09/30 13:06:54;;;;;;;8.43;4.78;;;;;;;;;;7391446;19;20010;-51
2021/09/30 13:09:28;;;;;;;12.63;5.43;;;;;;;;;;7389620;19;20022;-48
2021/09/30 13:11:59;;;;;;;10.88;4.85;;;;;;;;;;7390885;19;20003;-48
2021/09/30 13:14:44;;;;;;;10.93;5.38;;;;;;;;;;7395058;19;20010;-53
2021/09/30 13:17:13;;;;;;;8.68;5.63;;;;;;;;;;7391022;19;20010;-53
2021/09/30 13:19:54;;;;;;;10.45;5.70;;;;;;;;;;7391146;19;20474;-48
2021/09/30 13:22:23;;;;;;;9.70;5.78;;;;;;;;;;7390090;19;20030;-50
2021/09/30 13:24:52;;;;;;;11.40;6.07;;;;;;;;;;7389103;19;20011;-49
2021/09/30 13:27:26;;;;;;;9.35;5.95;;;;;;;;;;7390074;19;20021;-42
2021/09/30 13:29:54;;;;;;;10.15;6.95;;;;;;;;;;7390911;19;20462;-51
2021/09/30 13:32:24;;;;;;;11.38;6.25;;;;;;;;;;7391901;19;20014;-49
2021/09/30 13:34:52;;;;;;;9.48;5.50;;;;;;;;;;7392202;19;20053;-50
2021/09/30 13:37:20;;;;;;;10.68;6.32;;;;;;;;;;7390792;19;20007;-47
2021/09/30 13:39:48;;;;;;;10.50;5.82;;;;;;;;;;7391197;19;20482;-48
2021/09/30 13:42:15;;;;;;;9.02;5.65;;;;;;;;;;7389498;19;20013;-54
2021/09/30 13:44:43;;;;;;;8.07;5.10;;;;;;;;;;7395590;19;20018;-41
2021/09/30 13:47:10;;;;;;;7.30;4.88;;;;;;;;;;7397485;19;20011;-49
2021/09/30 13:49:38;;;;;;;9.27;5.35;;;;;;;;;;7397451;19;20017;-41
2021/09/30 13:52:06;;;;;;;9.07;5.68;;;;;;;;;;7395762;19;20018;-40
2021/09/30 13:54:33;;;;;;;8.07;5.20;;;;;;;;;;7397213;19;20074;-43
2021/09/30 13:57:01;;;;;;;6.13;4.47;;;;;;;;;;7397137;19;20027;-50
2021/09/30 13:59:30;;;;;;;10.75;5.32;;;;;;;;;;7397773;19;20014;-39
2021/09/30 14:02:18;;;;;;;9.30;5.50;;;;;;;;;;7398132;19;20033;-47
2021/09/30 14:04:45;;;;;;;10.57;4.93;;;;;;;;;;7395401;19;20007;-51
2021/09/30 14:07:13;;;;;;;8.60;5.65;;;;;;;;;;7397106;19;20014;-52
2021/09/30 14:09:40;;;;;;;8.20;5.72;;;;;;;;;;7396519;19;20007;-48
2021/09/30 14:12:08;;;;;;;8.25;4.80;;;;;;;;;;7397327;19;20479;-48
2021/09/30 14:14:36;;;;;;;7.55;4.85;;;;;;;;;;7400830;19;20066;-52
2021/09/30 14:17:04;;;;;;;25.38;6.07;;;;;;;;;;7396126;19;20036;-51
2021/09/30 14:19:32;;;;;;;9.98;4.97;;;;;;;;;;7396727;19;20070;-49
2021/09/30 14:21:59;;;;;;;8.18;5.22;;;;;;;;;;7396863;19;20027;-39
2021/09/30 14:24:30;;;;;;;8.48;5.13;;;;;;;;;;7395663;19;20010;-50
2021/09/30 14:27:00;;;;;;;8.68;5.30;;;;;;;;;;7396670;19;20084;-44
2021/09/30 14:29:27;;;;;;;8.35;5.45;;;;;;;;;;7396335;19;20029;-46
2021/09/30 14:31:55;;;;;;;7.15;5.15;;;;;;;;;;7396682;19;20011;-40
2021/09/30 14:34:22;;;;;;;9.07;5.85;;;;;;;;;;7395727;19;20015;-39
2021/09/30 14:36:50;;;;;;;8.80;5.45;;;;;;;;;;7395288;19;20022;-49
2021/09/30 14:39:17;;;;;;;10.57;6.50;;;;;;;;;;7396103;19;20013;-41
2021/09/30 14:41:45;;;;;;;12.05;6.15;;;;;;;;;;7393321;19;20339;-46
2021/09/30 14:44:12;;;;;;;9.90;5.90;;;;;;;;;;7398428;19;20426;-45
2021/09/30 14:46:40;;;;;;;18.80;6.45;;;;;;;;;;7395935;19;20398;-45
2021/09/30 14:49:07;;;;;;;12.50;6.60;;;;;;;;;;7395682;19;20018;-47
2021/09/30 14:51:35;;;;;;;10.50;6.05;;;;;;;;;;7395768;19;20023;-49
2021/09/30 14:54:02;;;;;;;10.10;5.53;;;;;;;;;;7396571;19;20015;-47
2021/09/30 14:56:30;;;;;;;9.18;5.93;;;;;;;;;;7395909;19;20038;-40
2021/09/30 14:58:57;;;;;;;10.48;7.30;;;;;;;;;;7397719;19;20019;-46
2021/09/30 15:01:24;;;;;;;16.10;6.45;;;;;;;;;;7397312;19;20018;-46
2021/09/30 15:03:52;;;;;;;11.80;6.45;;;;;;;;;;7395350;19;20011;-47
2021/09/30 15:06:20;;;;;;;8.95;6.25;;;;;;;;;;7395209;19;20363;-39
2021/09/30 15:08:48;;;;;;;10.52;6.72;;;;;;;;;;7395261;19;20017;-44
2021/09/30 15:11:16;;;;;;;12.38;5.57;;;;;;;;;;7393726;19;20018;-44
2021/09/30 15:13:43;;;;;;;16.42;5.90;;;;;;;;;;7397708;19;20015;-41
2021/09/30 15:16:11;;;;;;;9.85;5.85;;;;;;;;;;7393166;19;20015;-42
2021/09/30 15:18:50;;;;;;;11.07;5.97;;;;;;;;;;7394810;19;20034;-38
2021/09/30 15:21:21;;;;;;;10.93;5.13;;;;;;;;;;7395929;19;20035;-45
2021/09/30 15:23:53;;;;;;;10.75;5.25;;;;;;;;;;7393920;19;20020;-39
2021/09/30 15:26:22;;;;;;;9.63;5.40;;;;;;;;;;7393955;19;20038;-43
2021/09/30 15:28:51;;;;;;;7.45;5.32;;;;;;;;;;7394291;19;20050;-41
2021/09/30 15:31:18;;;;;;;9.90;6.50;;;;;;;;;;7393416;19;20543;-45
2021/09/30 15:33:48;;;;;;;11.80;6.47;;;;;;;;;;7396472;19;20458;-42
2021/09/30 15:36:20;;;;;;;9.30;5.93;;;;;;;;;;7394811;19;20042;-45
2021/09/30 15:38:48;;;;;;;9.27;5.72;;;;;;;;;;7394425;19;20026;-50
2021/09/30 15:41:15;;;;;;;7.47;5.20;;;;;;;;;;7393795;19;20010;-38
2021/09/30 15:43:46;;;;;;;8.38;4.80;;;;;;;;;;7393625;19;20030;-39
2021/09/30 15:46:14;;;;;;;7.25;4.63;;;;;;;;;;7393829;19;20070;-40
2021/09/30 15:48:43;;;;;;;9.40;5.50;;;;;;;;;;7393846;19;20014;-42
2021/09/30 15:51:12;;;;;;;7.75;5.13;;;;;;;;;;7393346;19;20014;-41
2021/09/30 15:53:41;;;;;;;8.02;4.78;;;;;;;;;;7392323;19;20010;-49
2021/09/30 15:56:09;;;;;;;10.13;5.47;;;;;;;;;;7393924;19;20010;-44
2021/09/30 15:58:37;;;;;;;10.05;7.32;;;;;;;;;;7393447;19;20050;-40
2021/09/30 16:01:05;;;;;;;11.30;7.50;;;;;;;;;;7391769;19;20025;-39
2021/09/30 16:03:34;;;;;;;10.27;7.00;;;;;;;;;;7392963;19;20011;-40
2021/09/30 16:06:02;;;;;;;14.10;7.75;;;;;;;;;;7390184;19;20017;-40
2021/09/30 16:08:30;;;;;;;10.48;6.97;;;;;;;;;;7393607;19;20006;-39
2021/09/30 16:10:58;;;;;;;7.93;5.55;;;;;;;;;;7392415;19;20030;-47
2021/09/30 16:13:26;;;;;;;9.40;6.43;;;;;;;;;;7394935;19;20010;-46
2021/09/30 16:15:54;;;;;;;11.95;7.03;;;;;;;;;;7393041;19;20010;-44
2021/09/30 16:18:21;;;;;;;8.77;5.60;;;;;;;;;;7393164;19;20007;-40
2021/09/30 16:20:50;;;;;;;9.55;5.75;;;;;;;;;;7393077;19;20429;-50
2021/09/30 16:23:19;;;;;;;8.50;5.22;;;;;;;;;;7392760;19;20128;-40
2021/09/30 16:25:48;;;;;;;10.82;6.07;;;;;;;;;;7392072;19;20014;-42
2021/09/30 16:28:19;;;;;;;9.00;5.45;;;;;;;;;;7392482;19;20011;-42
2021/09/30 16:30:53;;;;;;;13.02;6.03;;;;;;;;;;7392031;19;20006;-48
2021/09/30 16:33:22;;;;;;;11.88;6.75;;;;;;;;;;7391696;19;20512;-47
2021/09/30 16:35:49;;;;;;;14.30;7.57;;;;;;;;;;7393090;19;20014;-48
2021/09/30 16:38:18;;;;;;;12.23;8.93;;;;;;;;;;7392521;19;20015;-42
2021/09/30 16:40:47;;;;;;;14.57;8.15;;;;;;;;;;7392195;19;20003;-51
2021/09/30 16:43:14;;;;;;;12.75;8.98;;;;;;;;;;7392097;19;20033;-46
2021/09/30 16:45:42;;;;;;;12.23;8.38;;;;;;;;;;7391862;19;20011;-49
2021/09/30 16:48:10;;;;;;;11.63;8.48;;;;;;;;;;7392808;19;20478;-42
2021/09/30 16:50:37;;;;;;;14.95;9.43;;;;;;;;;;7391203;19;20245;-46
2021/09/30 16:53:05;;;;;;;11.43;8.00;;;;;;;;;;7392087;19;20022;-42
2021/09/30 16:55:33;;;;;;;15.63;9.98;;;;;;;;;;7390156;19;20121;-38
2021/09/30 16:58:00;;;;;;;15.35;9.32;;;;;;;;;;7391606;19;20014;-39
2021/09/30 17:00:28;;;;;;;12.00;8.82;;;;;;;;;;7391799;19;20017;-43
2021/09/30 17:02:56;;;;;;;15.38;8.55;;;;;;;;;;7390239;19;20011;-39
2021/09/30 17:05:24;;;;;;;12.48;8.38;;;;;;;;;;7390294;19;20355;-39
2021/09/30 17:07:52;;;;;;;10.93;7.50;;;;;;;;;;7391136;19;20022;-39
2021/09/30 17:10:20;;;;;;;12.07;7.32;;;;;;;;;;7390058;19;20098;-45
2021/09/30 17:12:50;;;;;;;12.52;8.35;;;;;;;;;;7391237;19;20090;-46
2021/09/30 17:15:20;;;;;;;35.30;18.67;;;;;;;;;;7391398;19;20013;-48
2021/09/30 17:17:50;;;;;;;31.20;15.50;;;;;;;;;;7388568;19;20014;-46
2021/09/30 17:20:20;;;;;;;33.38;16.02;;;;;;;;;;7390651;19;20030;-51
2021/09/30 17:22:48;;;;;;;10.90;7.47;;;;;;;;;;7391060;19;20015;-47
2021/09/30 17:25:18;;;;;;;9.70;6.40;;;;;;;;;;7389723;19;20014;-41
2021/09/30 17:27:47;;;;;;;11.13;5.43;;;;;;;;;;7387749;19;20097;-42
2021/09/30 17:30:21;;;;;;;7.65;5.60;;;;;;;;;;7391121;19;20013;-41
2021/09/30 17:32:51;;;;;;;9.82;5.50;;;;;;;;;;7391230;19;20023;-44
2021/09/30 17:35:23;;;;;;;8.30;5.60;;;;;;;;;;7395210;19;20010;-50
2021/09/30 17:37:54;;;;;;;14.73;8.35;;;;;;;;;;7391235;19;20611;-44
2021/09/30 17:40:22;;;;;;;14.57;7.72;;;;;;;;;;7390518;19;20015;-48
2021/09/30 17:42:53;;;;;;;12.35;7.95;;;;;;;;;;7389042;19;20010;-40
2021/09/30 17:45:20;;;;;;;9.93;7.15;;;;;;;;;;7389364;19;20055;-50
2021/09/30 17:47:47;;;;;;;12.43;8.00;;;;;;;;;;7391069;19;20006;-49
2021/09/30 17:50:15;;;;;;;12.10;7.22;;;;;;;;;;7390208;19;20014;-46
2021/09/30 17:52:42;;;;;;;11.25;7.90;;;;;;;;;;7389075;19;20018;-43
2021/09/30 17:55:11;;;;;;;11.40;6.82;;;;;;;;;;7389947;19;20011;-50
2021/09/30 17:57:41;;;;;;;18.30;7.88;;;;;;;;;;7390522;19;20006;-48